Lemoore (Abandoned) Willett A, CO

4:52 AM MST on November 14, 2019 (GMT -0700)
Lemoore (Abandoned) Willett A

Weather History for KLMO - October, 2019

Change the Weather History Date:

Wednesday, October 23, 2019

  Actual Average (WUND) Record (WUND)
Temperature  
Mean Temperature 46 °F -  
Max Temperature 58 °F - - (-1)
Min Temperature 33 °F - - (-1)
Degree Days  
Heating Degree Days 19    
Moisture  
Dew Point 28 °F    
Average Humidity 51    
Maximum Humidity 92    
Minimum Humidity 23    
Precipitation  
Precipitation 0.00 in - - ()
Sea Level Pressure  
Sea Level Pressure 30.13 in    
Wind  
Wind Speed 11 mph (NNE)    
Max Wind Speed 24 mph    
Max Gust Speed 34 mph    
Visibility 9 miles    
Events Rain , Snow    
Averages and records for this station are not official NWS values.
T = Trace of Precipitation, MM = Missing Value Source: NWS Daily Summary

Daily Weather History Graph

Daily Weather History Graph

Search for Another Location

Airport or City:

Astronomy

Oct. 23, 2019 Rise Set
Actual Time 7:19 AM MDT 6:09 PM MDT
Civil Twilight 6:52 AM MDT 6:37 PM MDT
Nautical Twilight 6:20 AM MDT 7:08 PM MDT
Astronomical Twilight 5:48 AM MDT 7:40 PM MDT
Moon 1:40 AM MDT (10/23) 4:02 PM MDT (10/23)
Length of Visible Light 11h 45m
Length of Day
10h 49m
Waning Crescent, 26% of the Moon is Illuminated
Oct 23
Waning Crescent
Oct 27
New
Nov 4
First Quarter
Nov 12
Full
Nov 19
Last Quarter

Hourly Weather History & Observations

Time (MDT) Temp. Windchill Dew Point Humidity Pressure Visibility Wind Dir Wind Speed Gust Speed Precip Events Conditions
12:15 AM 57.7 °F - 23.5 °F 27% 29.93 in 10.0 mi West 10.4 mph 20.7 mph N/A   Clear
12:35 AM 58.6 °F - 23.7 °F 26% 29.93 in 10.0 mi West 12.7 mph 34.5 mph N/A   Clear
12:55 AM 57.0 °F - 24.8 °F 29% 29.93 in 10.0 mi West 8.1 mph 24.2 mph N/A   Clear
1:35 AM 56.1 °F - 24.6 °F 30% 29.93 in 10.0 mi West 6.9 mph 16.1 mph N/A   Clear
1:55 AM 55.0 °F - 25.3 °F 32% 29.92 in 10.0 mi NW 8.1 mph - N/A   Clear
2:15 AM 55.4 °F - 25.7 °F 32% 29.94 in 10.0 mi WNW 10.4 mph 19.6 mph N/A   Clear
2:35 AM 54.7 °F - 24.8 °F 32% 29.94 in 10.0 mi NW 5.8 mph 16.1 mph N/A   Clear
2:55 AM 55.6 °F - 22.8 °F 28% 29.94 in 10.0 mi WNW 11.5 mph 17.3 mph N/A   Clear
3:15 AM 57.0 °F - 22.5 °F 26% 29.94 in 10.0 mi NW 23.0 mph 33.4 mph N/A   Clear
3:35 AM 55.9 °F - 22.1 °F 27% 29.94 in 10.0 mi WNW 18.4 mph 24.2 mph N/A   Clear
3:55 AM 57.2 °F - 19.8 °F 23% 29.95 in 10.0 mi WNW 15.0 mph 20.7 mph N/A   Clear
4:15 AM 56.3 °F - 19.6 °F 24% 29.96 in 10.0 mi West 18.4 mph 28.8 mph N/A   Clear
4:35 AM 55.2 °F - 19.6 °F 25% 29.97 in 10.0 mi West 13.8 mph 19.6 mph N/A   Clear
4:55 AM 52.0 °F - 21.2 °F 30% 29.98 in 10.0 mi WNW 4.6 mph - N/A   Clear
5:15 AM 52.7 °F - 21.0 °F 29% 29.99 in 10.0 mi North 6.9 mph - N/A   Clear
5:35 AM 49.3 °F - 20.7 °F 32% 30.00 in 10.0 mi WNW 6.9 mph - N/A   Clear
5:55 AM 52.2 °F - 20.8 °F 29% 30.02 in 10.0 mi NNW 6.9 mph 16.1 mph N/A   Clear
6:15 AM 52.9 °F - 22.3 °F 30% 30.03 in 10.0 mi NW 15.0 mph 23.0 mph N/A   Clear
6:35 AM 51.3 °F - 23.9 °F 34% 30.04 in 10.0 mi East 5.8 mph - N/A   Clear
6:55 AM 42.8 °F 38.6 °F 29.3 °F 59% - 10.0 mi East 6.9 mph - N/A   Clear
7:35 AM 39.7 °F 35.6 °F 31.1 °F 71% 30.08 in 10.0 mi East 5.8 mph - N/A   Clear
7:55 AM 41.9 °F 39.0 °F 32.0 °F 68% 30.09 in 10.0 mi SE 4.6 mph - N/A   Clear
8:15 AM 42.6 °F 38.4 °F 32.0 °F 66% 30.10 in 10.0 mi SSE 6.9 mph - N/A   Clear
8:35 AM 43.7 °F 39.1 °F 32.0 °F 63% 30.11 in 10.0 mi SSE 8.1 mph - N/A   Clear
8:55 AM 44.6 °F 40.7 °F 32.0 °F 61% 30.12 in 10.0 mi South 6.9 mph - N/A   Clear
9:15 AM 45.7 °F 41.5 °F 32.0 °F 59% 30.11 in 10.0 mi SSE 8.1 mph - N/A   Scattered Clouds
9:35 AM 46.0 °F 41.9 °F 32.0 °F 58% 30.11 in 10.0 mi SSE 8.1 mph - N/A   Scattered Clouds
9:55 AM 47.7 °F - 32.0 °F 55% 30.11 in 10.0 mi ESE 10.4 mph - N/A   Clear
10:35 AM 49.3 °F - 32.0 °F 51% 30.10 in 10.0 mi ESE 8.1 mph - N/A   Clear
10:55 AM 50.7 °F - 31.6 °F 48% 30.10 in 10.0 mi East 11.5 mph - N/A   Clear
11:15 AM 51.3 °F - 31.5 °F 47% 30.10 in 10.0 mi ESE 6.9 mph - N/A   Clear
11:35 AM 52.2 °F - 30.9 °F 44% 30.10 in 10.0 mi ESE 6.9 mph - N/A   Scattered Clouds
11:55 AM 53.2 °F - 30.6 °F 42% 30.10 in 10.0 mi ESE 5.8 mph - N/A   Mostly Cloudy
12:15 PM 54.9 °F - 30.2 °F 39% 30.10 in 10.0 mi East 5.8 mph - N/A   Mostly Cloudy
12:35 PM 53.2 °F - 29.5 °F 40% 30.11 in 10.0 mi NNW 5.8 mph - N/A   Overcast
12:55 PM 46.9 °F - 32.9 °F 58% 30.10 in 10.0 mi NNE 17.3 mph 27.6 mph N/A   Overcast
1:15 PM 47.3 °F - 34.3 °F 61% 30.11 in 10.0 mi North 18.4 mph 24.2 mph N/A   Overcast
1:35 PM 43.0 °F 34.8 °F 33.4 °F 69% 30.12 in 10.0 mi NNE 18.4 mph 23.0 mph N/A Rain Light Rain
1:55 PM 43.3 °F 36.8 °F 34.0 °F 70% 30.12 in 10.0 mi NNE 12.7 mph 19.6 mph N/A   Overcast
2:15 PM 47.1 °F - 33.4 °F 59% 30.11 in 10.0 mi North 12.7 mph - N/A   Overcast
2:35 PM 49.3 °F - 28.0 °F 44% 30.10 in 10.0 mi North 19.6 mph 24.2 mph N/A   Overcast
2:55 PM 49.8 °F - 27.9 °F 43% 30.11 in 10.0 mi North 18.4 mph 23.0 mph N/A   Mostly Cloudy
3:15 PM 49.1 °F - 25.7 °F 40% 30.12 in 10.0 mi North 15.0 mph 26.5 mph N/A   Mostly Cloudy
3:35 PM 48.0 °F - 28.4 °F 47% 30.12 in 10.0 mi NNE 16.1 mph - N/A   Overcast
3:55 PM 45.5 °F 38.9 °F 28.2 °F 51% 30.13 in 10.0 mi North 15.0 mph 27.6 mph N/A   Mostly Cloudy
4:15 PM 45.0 °F 36.6 °F 26.4 °F 48% 30.14 in 10.0 mi North 21.9 mph 31.1 mph N/A   Mostly Cloudy
4:35 PM 45.7 °F 39.1 °F 24.3 °F 43% 30.16 in 10.0 mi North 15.0 mph 25.3 mph N/A   Overcast
4:55 PM 45.9 °F 39.7 °F 21.2 °F 38% 30.18 in 10.0 mi North 13.8 mph - N/A   Overcast
5:15 PM 45.7 °F 39.1 °F 20.3 °F 37% 30.17 in 10.0 mi NNE 15.0 mph 20.7 mph N/A   Overcast
5:35 PM 45.5 °F 39.9 °F 22.3 °F 40% 30.18 in 10.0 mi North 11.5 mph - N/A   Overcast
5:55 PM 45.1 °F 36.4 °F 25.9 °F 47% 30.22 in 10.0 mi NNE 24.2 mph 29.9 mph N/A   Overcast
6:15 PM 39.4 °F 32.3 °F 31.1 °F 72% 30.26 in 10.0 mi NNE 11.5 mph 23.0 mph N/A   Overcast
6:35 PM 39.6 °F 33.0 °F 30.9 °F 71% 30.27 in 10.0 mi NNE 10.4 mph 16.1 mph N/A   Overcast
6:55 PM 40.1 °F 32.7 °F 29.3 °F 65% 30.31 in 10.0 mi NNE 12.7 mph 17.3 mph N/A   Overcast
7:15 PM 38.7 °F 31.8 °F 29.3 °F 69% 30.27 in 7.0 mi NNE 10.4 mph - N/A   Unknown
7:35 PM 39.2 °F 32.5 °F 28.4 °F 65% 30.29 in 10.0 mi NNE 10.4 mph - N/A   Overcast
7:55 PM 39.6 °F 33.0 °F 27.3 °F 62% 30.31 in 10.0 mi NNE 10.4 mph - N/A   Overcast
8:15 PM 39.7 °F 33.2 °F 25.7 °F 57% 30.32 in 10.0 mi NNE 10.4 mph 21.9 mph N/A   Overcast
8:35 PM 39.6 °F 32.1 °F 26.4 °F 59% 30.33 in 10.0 mi NE 12.7 mph 17.3 mph N/A   Overcast
8:55 PM 39.2 °F 32.5 °F 27.1 °F 62% 30.33 in 10.0 mi NE 10.4 mph - N/A   Overcast
9:15 PM 38.5 °F 31.6 °F 28.0 °F 66% 30.35 in 10.0 mi NE 10.4 mph - N/A   Unknown
9:35 PM 37.2 °F 31.9 °F 28.9 °F 72% 30.35 in 4.0 mi NE 6.9 mph - N/A Snow Light Snow
9:55 PM 36.1 °F - 29.7 °F 77% 30.36 in 2.0 mi Calm Calm - N/A Snow Light Snow
10:15 PM 35.2 °F - 30.7 °F 84% 30.37 in 1.2 mi Calm Calm - N/A Snow Snow
10:35 PM 34.9 °F - 31.1 °F 86% 30.37 in 1.2 mi Calm Calm - N/A Snow Light Snow
10:55 PM 34.7 °F 30.6 °F 31.6 °F 89% 30.39 in 1.2 mi NNE 4.6 mph - N/A Snow Light Snow
11:15 PM 34.2 °F 30.0 °F 31.5 °F 90% 30.40 in 1.2 mi ESE 4.6 mph - N/A Snow Light Snow
11:35 PM 34.0 °F 31.0 °F 31.5 °F 90% 30.39 in 5.0 mi SSE 3.5 mph - N/A Snow Light Snow
11:55 PM 33.8 °F - 31.6 °F 92% 30.40 in 3.0 mi Calm Calm - N/A Snow Light Snow